sensor_id;sensor_type;location;lat;lon;timestamp;pressure;altitude;pressure_sealevel;temperature;humidity
52591;BME280;38483;42.620;25.394;2023-04-05T00:02:13;96179.88;;;6.94;66.54
52591;BME280;38483;42.620;25.394;2023-04-05T00:04:44;96186.88;;;6.91;65.50
52591;BME280;38483;42.620;25.394;2023-04-05T00:07:18;96185.78;;;6.96;65.63
52591;BME280;38483;42.620;25.394;2023-04-05T00:09:47;96179.31;;;6.88;66.16
52591;BME280;38483;42.620;25.394;2023-04-05T00:12:15;96171.72;;;6.85;64.88
52591;BME280;38483;42.620;25.394;2023-04-05T00:14:42;96166.72;;;6.82;66.01
52591;BME280;38483;42.620;25.394;2023-04-05T00:17:09;96177.59;;;6.88;65.79
52591;BME280;38483;42.620;25.394;2023-04-05T00:19:38;96168.88;;;6.91;65.63
52591;BME280;38483;42.620;25.394;2023-04-05T00:22:05;96171.22;;;6.77;66.31
52591;BME280;38483;42.620;25.394;2023-04-05T00:24:37;96182.84;;;6.67;66.83
52591;BME280;38483;42.620;25.394;2023-04-05T00:27:04;96190.44;;;6.49;67.32
52591;BME280;38483;42.620;25.394;2023-04-05T00:29:31;96190.44;;;6.49;65.68
52591;BME280;38483;42.620;25.394;2023-04-05T00:31:58;96181.94;;;6.49;66.48
52591;BME280;38483;42.620;25.394;2023-04-05T00:34:25;96168.81;;;6.35;67.11
52591;BME280;38483;42.620;25.394;2023-04-05T00:36:52;96175.63;;;6.36;67.26
52591;BME280;38483;42.620;25.394;2023-04-05T00:39:19;96161.44;;;6.27;68.09
52591;BME280;38483;42.620;25.394;2023-04-05T00:41:47;96171.88;;;6.24;67.71
52591;BME280;38483;42.620;25.394;2023-04-05T00:44:14;96185.84;;;6.37;67.33
52591;BME280;38483;42.620;25.394;2023-04-05T00:46:42;96185.91;;;6.36;66.97
52591;BME280;38483;42.620;25.394;2023-04-05T00:49:09;96194.63;;;6.52;66.23
52591;BME280;38483;42.620;25.394;2023-04-05T00:51:37;96183.13;;;6.61;68.11
52591;BME280;38483;42.620;25.394;2023-04-05T00:54:04;96168.50;;;6.42;68.13
52591;BME280;38483;42.620;25.394;2023-04-05T00:56:32;96186.81;;;6.55;65.92
52591;BME280;38483;42.620;25.394;2023-04-05T00:58:59;96184.50;;;6.49;66.35
52591;BME280;38483;42.620;25.394;2023-04-05T01:01:27;96197.69;;;6.60;67.11
52591;BME280;38483;42.620;25.394;2023-04-05T01:03:58;96187.75;;;6.52;67.70
52591;BME280;38483;42.620;25.394;2023-04-05T01:11:58;96198.06;;;6.52;66.70
52591;BME280;38483;42.620;25.394;2023-04-05T01:14:26;96215.03;;;6.36;67.23
52591;BME280;38483;42.620;25.394;2023-04-05T01:16:53;96209.91;;;6.36;67.02
52591;BME280;38483;42.620;25.394;2023-04-05T01:19:27;96214.28;;;6.34;67.13
52591;BME280;38483;42.620;25.394;2023-04-05T01:27:19;96217.81;;;6.12;67.35
52591;BME280;38483;42.620;25.394;2023-04-05T01:30:05;96227.75;;;6.19;68.17
52591;BME280;38483;42.620;25.394;2023-04-05T01:32:43;96225.03;;;6.22;68.57
52591;BME280;38483;42.620;25.394;2023-04-05T01:37:39;96226.84;;;6.20;68.95
52591;BME280;38483;42.620;25.394;2023-04-05T01:40:07;96219.09;;;6.22;67.81
52591;BME280;38483;42.620;25.394;2023-04-05T01:42:35;96219.03;;;6.23;67.14
52591;BME280;38483;42.620;25.394;2023-04-05T01:45:02;96227.00;;;6.17;68.09
52591;BME280;38483;42.620;25.394;2023-04-05T01:47:31;96237.72;;;6.07;68.99
52591;BME280;38483;42.620;25.394;2023-04-05T01:49:58;96238.28;;;5.93;71.64
52591;BME280;38483;42.620;25.394;2023-04-05T01:52:25;96227.94;;;5.95;72.52
52591;BME280;38483;42.620;25.394;2023-04-05T01:54:52;96238.97;;;5.97;72.37
52591;BME280;38483;42.620;25.394;2023-04-05T01:57:19;96227.13;;;5.28;75.12
52591;BME280;38483;42.620;25.394;2023-04-05T01:59:46;96244.06;;;5.55;74.16
52591;BME280;38483;42.620;25.394;2023-04-05T02:02:13;96242.09;;;5.61;75.08
52591;BME280;38483;42.620;25.394;2023-04-05T02:04:40;96227.66;;;5.79;73.96
52591;BME280;38483;42.620;25.394;2023-04-05T02:07:08;96238.38;;;5.90;72.82
52591;BME280;38483;42.620;25.394;2023-04-05T02:09:35;96243.38;;;6.15;70.38
52591;BME280;38483;42.620;25.394;2023-04-05T02:12:02;96253.91;;;6.29;69.51
52591;BME280;38483;42.620;25.394;2023-04-05T02:14:29;96252.59;;;6.40;70.97
52591;BME280;38483;42.620;25.394;2023-04-05T02:16:56;96253.41;;;6.41;70.70
52591;BME280;38483;42.620;25.394;2023-04-05T02:19:24;96248.84;;;6.47;70.33
52591;BME280;38483;42.620;25.394;2023-04-05T02:21:51;96248.13;;;6.44;70.35
52591;BME280;38483;42.620;25.394;2023-04-05T02:24:22;96249.81;;;6.45;70.15
52591;BME280;38483;42.620;25.394;2023-04-05T02:26:48;96253.16;;;6.47;70.13
52591;BME280;38483;42.620;25.394;2023-04-05T02:29:17;96249.34;;;6.35;68.77
52591;BME280;38483;42.620;25.394;2023-04-05T02:31:44;96247.19;;;6.26;68.24
52591;BME280;38483;42.620;25.394;2023-04-05T02:34:12;96249.34;;;6.35;68.29
52591;BME280;38483;42.620;25.394;2023-04-05T02:36:39;96253.28;;;6.44;67.42
52591;BME280;38483;42.620;25.394;2023-04-05T02:39:07;96259.53;;;6.38;67.03
52591;BME280;38483;42.620;25.394;2023-04-05T02:41:37;96266.59;;;6.33;67.72
52591;BME280;38483;42.620;25.394;2023-04-05T02:44:04;96255.28;;;6.37;68.58
52591;BME280;38483;42.620;25.394;2023-04-05T02:46:31;96258.78;;;5.95;69.25
52591;BME280;38483;42.620;25.394;2023-04-05T02:48:59;96235.56;;;5.96;69.14
52591;BME280;38483;42.620;25.394;2023-04-05T02:51:28;96242.22;;;6.22;69.65
52591;BME280;38483;42.620;25.394;2023-04-05T02:54:15;96245.25;;;6.31;69.73
52591;BME280;38483;42.620;25.394;2023-04-05T02:57:22;96258.41;;;6.44;68.60
52591;BME280;38483;42.620;25.394;2023-04-05T02:59:55;96252.44;;;6.43;67.72
52591;BME280;38483;42.620;25.394;2023-04-05T03:02:24;96261.84;;;6.24;65.89
52591;BME280;38483;42.620;25.394;2023-04-05T03:04:53;96255.66;;;5.87;68.28
52591;BME280;38483;42.620;25.394;2023-04-05T03:07:21;96263.91;;;5.95;68.51
52591;BME280;38483;42.620;25.394;2023-04-05T03:09:51;96271.03;;;6.08;68.30
52591;BME280;38483;42.620;25.394;2023-04-05T03:12:20;96264.25;;;6.07;67.45
52591;BME280;38483;42.620;25.394;2023-04-05T03:14:47;96253.19;;;6.05;68.14
52591;BME280;38483;42.620;25.394;2023-04-05T03:17:19;96256.88;;;6.20;68.23
52591;BME280;38483;42.620;25.394;2023-04-05T03:19:55;96259.19;;;6.26;67.04
52591;BME280;38483;42.620;25.394;2023-04-05T03:22:25;96258.69;;;6.18;66.98
52591;BME280;38483;42.620;25.394;2023-04-05T03:24:54;96224.31;;;5.77;66.78
52591;BME280;38483;42.620;25.394;2023-04-05T03:27:22;96267.19;;;5.76;67.86
52591;BME280;38483;42.620;25.394;2023-04-05T03:30:15;96269.63;;;5.79;67.96
52591;BME280;38483;42.620;25.394;2023-04-05T03:32:49;96278.47;;;5.94;68.12
52591;BME280;38483;42.620;25.394;2023-04-05T03:35:35;96279.66;;;6.07;67.49
52591;BME280;38483;42.620;25.394;2023-04-05T03:38:05;96275.13;;;6.14;67.62
52591;BME280;38483;42.620;25.394;2023-04-05T03:40:34;96279.88;;;6.23;67.28
52591;BME280;38483;42.620;25.394;2023-04-05T03:43:01;96280.47;;;6.29;67.61
52591;BME280;38483;42.620;25.394;2023-04-05T03:45:29;96279.00;;;6.24;67.19
52591;BME280;38483;42.620;25.394;2023-04-05T03:47:57;96280.63;;;6.05;67.98
52591;BME280;38483;42.620;25.394;2023-04-05T03:50:25;96278.81;;;6.07;68.01
52591;BME280;38483;42.620;25.394;2023-04-05T03:52:52;96295.19;;;6.04;68.37
52591;BME280;38483;42.620;25.394;2023-04-05T03:55:21;96295.84;;;5.89;69.18
52591;BME280;38483;42.620;25.394;2023-04-05T03:57:51;96302.16;;;5.79;69.45
52591;BME280;38483;42.620;25.394;2023-04-05T04:00:36;96304.97;;;5.73;70.44
52591;BME280;38483;42.620;25.394;2023-04-05T04:03:15;96306.09;;;5.89;70.22
52591;BME280;38483;42.620;25.394;2023-04-05T04:05:45;96308.69;;;5.89;69.40
52591;BME280;38483;42.620;25.394;2023-04-05T04:08:12;96296.91;;;5.82;68.65
52591;BME280;38483;42.620;25.394;2023-04-05T04:10:39;96316.19;;;5.94;69.07
52591;BME280;38483;42.620;25.394;2023-04-05T04:13:38;96309.75;;;5.82;68.57
52591;BME280;38483;42.620;25.394;2023-04-05T04:16:26;96323.88;;;5.94;68.27
52591;BME280;38483;42.620;25.394;2023-04-05T04:19:17;96313.03;;;5.87;68.10
52591;BME280;38483;42.620;25.394;2023-04-05T04:22:04;96325.09;;;5.85;68.83
52591;BME280;38483;42.620;25.394;2023-04-05T04:24:45;96317.03;;;5.71;68.56
52591;BME280;38483;42.620;25.394;2023-04-05T04:27:36;96331.03;;;5.87;68.73
52591;BME280;38483;42.620;25.394;2023-04-05T04:30:21;96345.03;;;6.00;68.93
52591;BME280;38483;42.620;25.394;2023-04-05T04:33:07;96314.22;;;5.77;67.90
52591;BME280;38483;42.620;25.394;2023-04-05T04:35:43;96338.34;;;5.96;68.23
52591;BME280;38483;42.620;25.394;2023-04-05T04:38:27;96344.03;;;6.04;67.67
52591;BME280;38483;42.620;25.394;2023-04-05T04:41:10;96338.78;;;6.07;67.54
52591;BME280;38483;42.620;25.394;2023-04-05T04:44:10;96341.09;;;6.13;66.72
52591;BME280;38483;42.620;25.394;2023-04-05T04:47:06;96346.69;;;6.24;66.74
52591;BME280;38483;42.620;25.394;2023-04-05T04:49:59;96337.88;;;6.30;67.39
52591;BME280;38483;42.620;25.394;2023-04-05T04:52:29;96348.56;;;6.19;66.83
52591;BME280;38483;42.620;25.394;2023-04-05T04:54:56;96353.91;;;6.15;66.68
52591;BME280;38483;42.620;25.394;2023-04-05T04:57:23;96345.19;;;5.97;66.38
52591;BME280;38483;42.620;25.394;2023-04-05T04:59:52;96360.97;;;6.10;67.00
52591;BME280;38483;42.620;25.394;2023-04-05T05:02:23;96343.00;;;6.08;66.78
52591;BME280;38483;42.620;25.394;2023-04-05T05:04:50;96357.59;;;6.29;66.27
52591;BME280;38483;42.620;25.394;2023-04-05T05:07:18;96345.75;;;6.25;65.90
52591;BME280;38483;42.620;25.394;2023-04-05T05:09:44;96355.16;;;6.26;66.91
52591;BME280;38483;42.620;25.394;2023-04-05T05:12:12;96357.16;;;6.40;64.16
52591;BME280;38483;42.620;25.394;2023-04-05T05:14:38;96313.84;;;6.09;66.04
52591;BME280;38483;42.620;25.394;2023-04-05T05:17:06;96353.69;;;6.41;65.54
52591;BME280;38483;42.620;25.394;2023-04-05T05:19:34;96352.44;;;6.51;65.05
52591;BME280;38483;42.620;25.394;2023-04-05T05:22:01;96357.25;;;6.79;65.83
52591;BME280;38483;42.620;25.394;2023-04-05T05:24:28;96357.00;;;6.85;65.11
52591;BME280;38483;42.620;25.394;2023-04-05T05:26:55;96357.53;;;7.13;63.67
52591;BME280;38483;42.620;25.394;2023-04-05T05:29:22;96358.94;;;7.38;63.96
52591;BME280;38483;42.620;25.394;2023-04-05T05:31:49;96337.28;;;7.43;62.22
52591;BME280;38483;42.620;25.394;2023-04-05T05:34:16;96352.94;;;7.38;61.69
52591;BME280;38483;42.620;25.394;2023-04-05T05:36:54;96355.22;;;7.46;62.26
52591;BME280;38483;42.620;25.394;2023-04-05T05:39:22;96348.38;;;7.06;61.55
52591;BME280;38483;42.620;25.394;2023-04-05T05:41:49;96350.41;;;7.18;61.18
52591;BME280;38483;42.620;25.394;2023-04-05T05:44:16;96347.00;;;7.17;61.38
52591;BME280;38483;42.620;25.394;2023-04-05T05:46:43;96347.94;;;7.35;62.30
52591;BME280;38483;42.620;25.394;2023-04-05T05:49:10;96358.19;;;7.55;60.87
52591;BME280;38483;42.620;25.394;2023-04-05T05:51:37;96351.31;;;7.74;61.36
52591;BME280;38483;42.620;25.394;2023-04-05T05:54:04;96344.47;;;7.92;61.09
52591;BME280;38483;42.620;25.394;2023-04-05T05:56:31;96359.63;;;8.16;60.27
52591;BME280;38483;42.620;25.394;2023-04-05T05:58:58;96342.03;;;8.24;59.78
52591;BME280;38483;42.620;25.394;2023-04-05T06:01:25;96355.69;;;8.45;58.93
52591;BME280;38483;42.620;25.394;2023-04-05T06:03:54;96367.47;;;8.68;60.15
52591;BME280;38483;42.620;25.394;2023-04-05T06:06:21;96352.75;;;8.53;58.47
52591;BME280;38483;42.620;25.394;2023-04-05T06:08:49;96362.53;;;8.80;58.47
52591;BME280;38483;42.620;25.394;2023-04-05T06:11:18;96369.34;;;8.98;57.42
52591;BME280;38483;42.620;25.394;2023-04-05T06:13:45;96386.00;;;9.10;57.16
52591;BME280;38483;42.620;25.394;2023-04-05T06:16:13;96388.72;;;9.24;56.38
52591;BME280;38483;42.620;25.394;2023-04-05T06:18:40;96380.63;;;9.47;56.05
52591;BME280;38483;42.620;25.394;2023-04-05T06:21:07;96381.59;;;9.62;54.97
52591;BME280;38483;42.620;25.394;2023-04-05T06:23:35;96385.88;;;9.46;58.43
52591;BME280;38483;42.620;25.394;2023-04-05T06:26:02;96393.56;;;9.47;56.59
52591;BME280;38483;42.620;25.394;2023-04-05T06:28:29;96384.75;;;9.17;58.71
52591;BME280;38483;42.620;25.394;2023-04-05T06:30:57;96398.78;;;8.96;59.04
52591;BME280;38483;42.620;25.394;2023-04-05T06:33:25;96377.03;;;8.83;59.19
52591;BME280;38483;42.620;25.394;2023-04-05T06:35:52;96404.91;;;8.59;60.50
52591;BME280;38483;42.620;25.394;2023-04-05T06:38:19;96403.31;;;8.74;60.49
52591;BME280;38483;42.620;25.394;2023-04-05T06:40:46;96415.06;;;8.96;60.21
52591;BME280;38483;42.620;25.394;2023-04-05T06:43:13;96410.00;;;9.29;59.86
52591;BME280;38483;42.620;25.394;2023-04-05T06:45:41;96402.97;;;9.48;58.66
52591;BME280;38483;42.620;25.394;2023-04-05T06:48:08;96414.34;;;9.61;57.88
52591;BME280;38483;42.620;25.394;2023-04-05T06:50:35;96409.72;;;9.83;56.88
52591;BME280;38483;42.620;25.394;2023-04-05T06:53:02;96413.41;;;9.62;56.98
52591;BME280;38483;42.620;25.394;2023-04-05T06:55:31;96417.59;;;9.65;56.84
52591;BME280;38483;42.620;25.394;2023-04-05T06:57:58;96419.09;;;9.69;57.01
52591;BME280;38483;42.620;25.394;2023-04-05T07:00:25;96421.00;;;9.16;58.50
52591;BME280;38483;42.620;25.394;2023-04-05T07:02:52;96409.06;;;8.62;59.30
52591;BME280;38483;42.620;25.394;2023-04-05T07:05:19;96380.00;;;8.75;58.98
52591;BME280;38483;42.620;25.394;2023-04-05T07:07:46;96426.56;;;9.25;57.78
52591;BME280;38483;42.620;25.394;2023-04-05T07:10:14;96428.00;;;9.48;57.16
52591;BME280;38483;42.620;25.394;2023-04-05T07:12:41;96425.44;;;9.63;56.89
52591;BME280;38483;42.620;25.394;2023-04-05T07:15:09;96423.06;;;9.43;56.50
52591;BME280;38483;42.620;25.394;2023-04-05T07:17:36;96426.84;;;9.53;55.64
52591;BME280;38483;42.620;25.394;2023-04-05T07:20:03;96418.31;;;9.51;56.58
52591;BME280;38483;42.620;25.394;2023-04-05T07:22:33;96425.31;;;9.49;55.50
52591;BME280;38483;42.620;25.394;2023-04-05T07:25:01;96412.19;;;9.37;55.98
52591;BME280;38483;42.620;25.394;2023-04-05T07:27:29;96444.94;;;9.53;56.90
52591;BME280;38483;42.620;25.394;2023-04-05T07:29:56;96437.72;;;9.75;56.34
52591;BME280;38483;42.620;25.394;2023-04-05T07:32:23;96440.97;;;9.79;55.09
52591;BME280;38483;42.620;25.394;2023-04-05T07:34:51;96432.56;;;9.75;55.75
52591;BME280;38483;42.620;25.394;2023-04-05T07:37:18;96433.53;;;9.73;56.67
52591;BME280;38483;42.620;25.394;2023-04-05T07:39:44;96439.88;;;9.67;56.46
52591;BME280;38483;42.620;25.394;2023-04-05T07:42:12;96448.34;;;9.87;55.45
52591;BME280;38483;42.620;25.394;2023-04-05T07:44:39;96440.28;;;9.93;53.84
52591;BME280;38483;42.620;25.394;2023-04-05T07:47:06;96442.88;;;10.08;54.44
52591;BME280;38483;42.620;25.394;2023-04-05T07:49:33;96444.50;;;10.26;54.85
52591;BME280;38483;42.620;25.394;2023-04-05T07:52:00;96454.28;;;10.37;53.42
52591;BME280;38483;42.620;25.394;2023-04-05T07:54:30;96442.81;;;10.10;53.95
52591;BME280;38483;42.620;25.394;2023-04-05T07:56:57;96438.00;;;10.35;54.03
52591;BME280;38483;42.620;25.394;2023-04-05T07:59:24;96452.00;;;10.62;53.62
52591;BME280;38483;42.620;25.394;2023-04-05T08:01:51;96424.31;;;10.33;53.75
52591;BME280;38483;42.620;25.394;2023-04-05T08:04:22;96447.31;;;10.84;52.96
52591;BME280;38483;42.620;25.394;2023-04-05T08:06:51;96452.03;;;10.78;53.01
52591;BME280;38483;42.620;25.394;2023-04-05T08:09:18;96446.28;;;10.57;52.52
52591;BME280;38483;42.620;25.394;2023-04-05T08:11:45;96453.03;;;10.44;53.65
52591;BME280;38483;42.620;25.394;2023-04-05T08:14:12;96442.50;;;10.47;54.36
52591;BME280;38483;42.620;25.394;2023-04-05T08:16:39;96445.69;;;10.52;54.59
52591;BME280;38483;42.620;25.394;2023-04-05T08:19:06;96462.38;;;10.62;53.93
52591;BME280;38483;42.620;25.394;2023-04-05T08:21:33;96461.97;;;10.54;53.00
52591;BME280;38483;42.620;25.394;2023-04-05T08:24:01;96442.50;;;10.62;52.54
52591;BME280;38483;42.620;25.394;2023-04-05T08:26:27;96430.63;;;10.43;52.39
52591;BME280;38483;42.620;25.394;2023-04-05T08:28:54;96461.69;;;10.74;53.08
52591;BME280;38483;42.620;25.394;2023-04-05T08:31:23;96471.41;;;10.71;52.18
52591;BME280;38483;42.620;25.394;2023-04-05T08:33:50;96472.31;;;10.54;53.13
52591;BME280;38483;42.620;25.394;2023-04-05T08:36:17;96468.50;;;10.61;53.49
52591;BME280;38483;42.620;25.394;2023-04-05T08:38:43;96455.00;;;10.86;52.81
52591;BME280;38483;42.620;25.394;2023-04-05T08:41:17;96470.16;;;11.07;52.90
52591;BME280;38483;42.620;25.394;2023-04-05T08:43:55;96475.38;;;10.92;52.21
52591;BME280;38483;42.620;25.394;2023-04-05T08:46:24;96472.19;;;11.02;51.75
52591;BME280;38483;42.620;25.394;2023-04-05T08:48:51;96470.59;;;11.29;52.24
52591;BME280;38483;42.620;25.394;2023-04-05T08:51:22;96472.91;;;11.50;52.31
52591;BME280;38483;42.620;25.394;2023-04-05T08:53:49;96463.81;;;11.57;51.14
52591;BME280;38483;42.620;25.394;2023-04-05T08:56:30;96461.13;;;11.58;51.06
52591;BME280;38483;42.620;25.394;2023-04-05T08:59:02;96462.59;;;11.78;50.12
52591;BME280;38483;42.620;25.394;2023-04-05T09:01:31;96472.69;;;11.68;51.43
52591;BME280;38483;42.620;25.394;2023-04-05T09:04:06;96477.78;;;11.70;51.47
52591;BME280;38483;42.620;25.394;2023-04-05T09:06:37;96480.31;;;11.56;51.84
52591;BME280;38483;42.620;25.394;2023-04-05T09:09:06;96482.22;;;11.68;51.44
52591;BME280;38483;42.620;25.394;2023-04-05T09:11:34;96482.34;;;11.65;51.43
52591;BME280;38483;42.620;25.394;2023-04-05T09:14:03;96484.13;;;11.34;52.49
52591;BME280;38483;42.620;25.394;2023-04-05T09:16:40;96470.47;;;11.46;51.96
52591;BME280;38483;42.620;25.394;2023-04-05T09:19:08;96492.38;;;11.71;51.15
52591;BME280;38483;42.620;25.394;2023-04-05T09:24:40;96483.19;;;11.65;51.99
52591;BME280;38483;42.620;25.394;2023-04-05T09:27:12;96477.19;;;11.79;51.26
52591;BME280;38483;42.620;25.394;2023-04-05T09:29:41;96488.44;;;11.50;51.43
52591;BME280;38483;42.620;25.394;2023-04-05T09:32:10;96495.13;;;11.54;52.86
52591;BME280;38483;42.620;25.394;2023-04-05T09:34:38;96496.78;;;11.55;52.73
52591;BME280;38483;42.620;25.394;2023-04-05T09:39:40;96456.94;;;11.41;51.54
52591;BME280;38483;42.620;25.394;2023-04-05T09:42:11;96491.47;;;11.72;51.05
52591;BME280;38483;42.620;25.394;2023-04-05T09:47:26;96485.34;;;11.73;51.62
52591;BME280;38483;42.620;25.394;2023-04-05T09:50:01;96473.06;;;11.76;51.53
52591;BME280;38483;42.620;25.394;2023-04-05T09:52:32;96484.66;;;12.13;50.70
52591;BME280;38483;42.620;25.394;2023-04-05T09:55:00;96476.84;;;12.27;49.77
52591;BME280;38483;42.620;25.394;2023-04-05T09:57:33;96479.09;;;11.91;49.43
52591;BME280;38483;42.620;25.394;2023-04-05T10:00:00;96483.19;;;11.65;49.79
52591;BME280;38483;42.620;25.394;2023-04-05T10:02:38;96486.69;;;11.80;50.50
52591;BME280;38483;42.620;25.394;2023-04-05T10:05:09;96484.38;;;12.03;50.22
52591;BME280;38483;42.620;25.394;2023-04-05T10:07:42;96475.81;;;11.73;51.78
52591;BME280;38483;42.620;25.394;2023-04-05T10:10:10;96477.50;;;11.74;51.47
52591;BME280;38483;42.620;25.394;2023-04-05T10:12:39;96469.16;;;11.69;50.00
52591;BME280;38483;42.620;25.394;2023-04-05T10:15:08;96485.66;;;12.10;51.24
52591;BME280;38483;42.620;25.394;2023-04-05T10:20:23;96491.88;;;12.08;50.71
52591;BME280;38483;42.620;25.394;2023-04-05T10:41:26;96490.53;;;11.13;53.53
52591;BME280;38483;42.620;25.394;2023-04-05T10:43:55;96491.78;;;11.52;52.89
52591;BME280;38483;42.620;25.394;2023-04-05T10:46:23;96473.66;;;11.66;52.54
52591;BME280;38483;42.620;25.394;2023-04-05T10:49:00;96472.84;;;11.79;51.87
52591;BME280;38483;42.620;25.394;2023-04-05T10:51:29;96489.53;;;11.89;51.26
52591;BME280;38483;42.620;25.394;2023-04-05T10:53:57;96488.25;;;11.96;51.74
52591;BME280;38483;42.620;25.394;2023-04-05T10:56:25;96490.59;;;11.87;51.51
52591;BME280;38483;42.620;25.394;2023-04-05T10:58:54;96494.66;;;11.91;50.79
52591;BME280;38483;42.620;25.394;2023-04-05T11:01:22;96492.03;;;11.77;52.17
52591;BME280;38483;42.620;25.394;2023-04-05T11:03:50;96493.56;;;11.35;53.28
52591;BME280;38483;42.620;25.394;2023-04-05T11:08:57;96499.31;;;11.26;54.36
52591;BME280;38483;42.620;25.394;2023-04-05T11:11:25;96506.59;;;11.20;53.75
52591;BME280;38483;42.620;25.394;2023-04-05T11:13:54;96504.91;;;11.48;54.57
52591;BME280;38483;42.620;25.394;2023-04-05T11:16:23;96499.00;;;11.46;56.31
52591;BME280;38483;42.620;25.394;2023-04-05T11:19:03;96494.41;;;11.36;57.41
52591;BME280;38483;42.620;25.394;2023-04-05T11:21:30;96504.69;;;10.92;58.96
52591;BME280;38483;42.620;25.394;2023-04-05T11:26:31;96504.47;;;10.34;60.80
52591;BME280;38483;42.620;25.394;2023-04-05T11:28:59;96507.53;;;10.08;61.27
52591;BME280;38483;42.620;25.394;2023-04-05T11:31:26;96507.88;;;10.02;62.30
52591;BME280;38483;42.620;25.394;2023-04-05T11:33:55;96509.53;;;9.53;62.94
52591;BME280;38483;42.620;25.394;2023-04-05T11:36:46;96498.94;;;9.75;63.32
52591;BME280;38483;42.620;25.394;2023-04-05T11:42:08;96514.66;;;9.88;63.22
52591;BME280;38483;42.620;25.394;2023-04-05T11:44:40;96511.19;;;9.54;64.81
52591;BME280;38483;42.620;25.394;2023-04-05T11:47:08;96505.13;;;9.55;64.31
52591;BME280;38483;42.620;25.394;2023-04-05T11:49:37;96490.53;;;9.54;64.29
52591;BME280;38483;42.620;25.394;2023-04-05T11:52:16;96506.34;;;9.65;63.54
52591;BME280;38483;42.620;25.394;2023-04-05T11:54:44;96512.34;;;9.66;63.90
52591;BME280;38483;42.620;25.394;2023-04-05T11:57:21;96502.38;;;9.58;63.71
52591;BME280;38483;42.620;25.394;2023-04-05T11:59:50;96502.84;;;9.66;63.48
52591;BME280;38483;42.620;25.394;2023-04-05T12:02:18;96509.38;;;9.56;63.49
52591;BME280;38483;42.620;25.394;2023-04-05T12:04:53;96500.94;;;9.53;63.98
52591;BME280;38483;42.620;25.394;2023-04-05T12:07:25;96496.13;;;9.62;64.01
52591;BME280;38483;42.620;25.394;2023-04-05T12:10:10;96499.19;;;9.36;64.67
52591;BME280;38483;42.620;25.394;2023-04-05T12:12:40;96499.19;;;9.36;65.30
52591;BME280;38483;42.620;25.394;2023-04-05T12:15:12;96500.56;;;9.43;64.39
52591;BME280;38483;42.620;25.394;2023-04-05T12:17:45;96506.66;;;9.42;65.01
52591;BME280;38483;42.620;25.394;2023-04-05T12:20:15;96513.09;;;9.34;65.06
52591;BME280;38483;42.620;25.394;2023-04-05T12:22:46;96505.88;;;9.40;64.91
52591;BME280;38483;42.620;25.394;2023-04-05T12:25:15;96511.38;;;9.51;64.40
52591;BME280;38483;42.620;25.394;2023-04-05T12:27:42;96492.41;;;9.68;62.89
52591;BME280;38483;42.620;25.394;2023-04-05T12:30:20;96525.03;;;9.53;63.50
52591;BME280;38483;42.620;25.394;2023-04-05T12:32:50;96471.00;;;9.32;63.36
52591;BME280;38483;42.620;25.394;2023-04-05T12:35:23;96505.66;;;9.28;63.81
52591;BME280;38483;42.620;25.394;2023-04-05T12:37:50;96491.28;;;9.22;64.16
52591;BME280;38483;42.620;25.394;2023-04-05T12:40:22;96512.19;;;9.35;64.16
52591;BME280;38483;42.620;25.394;2023-04-05T12:42:49;96503.00;;;9.29;64.25
52591;BME280;38483;42.620;25.394;2023-04-05T12:45:17;96501.88;;;9.35;64.25
52591;BME280;38483;42.620;25.394;2023-04-05T12:48:02;96515.31;;;9.41;63.54
52591;BME280;38483;42.620;25.394;2023-04-05T12:50:30;96508.84;;;9.33;63.53
52591;BME280;38483;42.620;25.394;2023-04-05T12:53:07;96514.31;;;9.44;63.10
52591;BME280;38483;42.620;25.394;2023-04-05T12:55:42;96493.66;;;9.27;62.93
52591;BME280;38483;42.620;25.394;2023-04-05T12:58:12;96510.84;;;9.45;63.25
52591;BME280;38483;42.620;25.394;2023-04-05T13:00:40;96513.56;;;9.25;62.98
52591;BME280;38483;42.620;25.394;2023-04-05T13:03:14;96506.66;;;9.25;63.24
52591;BME280;38483;42.620;25.394;2023-04-05T13:05:42;96501.94;;;9.33;63.27
52591;BME280;38483;42.620;25.394;2023-04-05T13:08:09;96497.69;;;9.32;63.70
52591;BME280;38483;42.620;25.394;2023-04-05T13:10:36;96507.00;;;9.18;63.72
52591;BME280;38483;42.620;25.394;2023-04-05T13:13:03;96499.03;;;9.05;64.01
52591;BME280;38483;42.620;25.394;2023-04-05T13:15:31;96514.38;;;9.08;63.77
52591;BME280;38483;42.620;25.394;2023-04-05T13:17:57;96516.22;;;9.06;63.99
52591;BME280;38483;42.620;25.394;2023-04-05T13:20:24;96516.81;;;9.11;64.18
52591;BME280;38483;42.620;25.394;2023-04-05T13:22:51;96516.53;;;9.34;63.64
52591;BME280;38483;42.620;25.394;2023-04-05T13:25:18;96510.59;;;9.32;63.05
52591;BME280;38483;42.620;25.394;2023-04-05T13:27:45;96521.88;;;9.31;63.86
52591;BME280;38483;42.620;25.394;2023-04-05T13:30:12;96509.59;;;9.18;64.07
52591;BME280;38483;42.620;25.394;2023-04-05T13:32:39;96513.03;;;9.18;64.97
52591;BME280;38483;42.620;25.394;2023-04-05T13:35:07;96516.53;;;9.51;65.21
52591;BME280;38483;42.620;25.394;2023-04-05T13:37:34;96515.06;;;9.63;65.12
52591;BME280;38483;42.620;25.394;2023-04-05T13:40:02;96507.72;;;9.55;66.56
52591;BME280;38483;42.620;25.394;2023-04-05T13:42:50;96514.03;;;9.50;65.14
52591;BME280;38483;42.620;25.394;2023-04-05T13:45:51;96516.75;;;9.64;65.81
52591;BME280;38483;42.620;25.394;2023-04-05T13:48:18;96523.38;;;9.69;64.80
52591;BME280;38483;42.620;25.394;2023-04-05T13:50:45;96523.13;;;9.74;64.35
52591;BME280;38483;42.620;25.394;2023-04-05T13:53:12;96527.47;;;9.73;65.39
52591;BME280;38483;42.620;25.394;2023-04-05T13:55:39;96530.66;;;9.61;64.96
52591;BME280;38483;42.620;25.394;2023-04-05T13:58:06;96533.91;;;9.82;66.70
52591;BME280;38483;42.620;25.394;2023-04-05T14:00:33;96539.53;;;9.90;67.83
52591;BME280;38483;42.620;25.394;2023-04-05T14:03:00;96529.34;;;9.87;66.54
52591;BME280;38483;42.620;25.394;2023-04-05T14:05:27;96541.50;;;9.85;66.60